Time;durP1;ratioP1;P1;durP2;ratioP2;P2;SDS_P1;SDS_P2;PMS_P1;PMS_P2;Temp;Humidity;BMP_temperature;BMP_pressure;BME280_temperature;BME280_humidity;BME280_pressure;Samples;Min_cycle;Max_cycle;Signal;HPM_P1;HPM_P2
2022/09/15 00:02:21;;;;;;;3.00;2.00;;;17.60;99.90;;;;;;5073105;28;20268;-88
2022/09/15 00:04:48;;;;;;;2.00;1.80;;;17.60;99.90;;;;;;5067913;28;20218;-88
2022/09/15 00:07:14;;;;;;;2.80;2.05;;;17.60;99.90;;;;;;5073360;28;20629;-88
2022/09/15 00:09:42;;;;;;;2.92;2.13;;;17.70;99.90;;;;;;5058852;28;20237;-88
2022/09/15 00:12:08;;;;;;;2.40;1.70;;;17.70;99.90;;;;;;5063027;28;20193;-87
2022/09/15 00:14:37;;;;;;;3.17;2.13;;;17.60;99.80;;;;;;5066276;28;20636;-88
2022/09/15 00:17:03;;;;;;;3.40;2.10;;;17.60;99.90;;;;;;5071894;28;20198;-87
2022/09/15 00:19:30;;;;;;;5.20;2.42;;;17.50;99.90;;;;;;5063975;28;20280;-88
2022/09/15 00:21:57;;;;;;;4.57;2.70;;;17.50;99.90;;;;;;5071325;28;20205;-88
2022/09/15 00:24:24;;;;;;;3.92;2.42;;;17.60;99.90;;;;;;5069734;28;20209;-87
2022/09/15 00:26:51;;;;;;;4.40;2.13;;;17.60;99.80;;;;;;5068056;28;20231;-87
2022/09/15 00:29:18;;;;;;;3.92;2.10;;;17.50;99.80;;;;;;5073364;28;20210;-87
2022/09/15 00:31:46;;;;;;;3.47;1.75;;;17.50;99.60;;;;;;5077090;28;20204;-86
2022/09/15 00:34:13;;;;;;;3.78;1.80;;;17.50;99.80;;;;;;5067161;28;20228;-88
2022/09/15 00:36:40;;;;;;;2.63;1.42;;;17.50;99.60;;;;;;5061162;28;20652;-88
2022/09/15 00:39:07;;;;;;;2.70;1.67;;;17.50;99.50;;;;;;5064325;28;20657;-87
2022/09/15 00:41:35;;;;;;;1.67;1.58;;;17.50;99.60;;;;;;5068100;28;20683;-88
2022/09/15 00:44:04;;;;;;;3.22;1.83;;;17.50;99.50;;;;;;5057009;28;20210;-88
2022/09/15 00:46:33;;;;;;;3.85;1.70;;;17.50;99.80;;;;;;5063879;28;20688;-87
2022/09/15 00:49:05;;;;;;;3.58;1.73;;;17.50;99.60;;;;;;5057760;28;20202;-88
2022/09/15 00:51:36;;;;;;;3.55;1.65;;;17.50;99.30;;;;;;5064874;28;20205;-88
2022/09/15 00:54:14;;;;;;;5.28;1.80;;;17.50;99.50;;;;;;5061627;28;20201;-87
2022/09/15 00:56:43;;;;;;;4.25;1.50;;;17.50;99.70;;;;;;5062264;28;20206;-88
2022/09/15 00:59:13;;;;;;;1.92;1.70;;;17.50;99.50;;;;;;5063752;28;20197;-87
2022/09/15 01:01:42;;;;;;;2.17;1.80;;;17.50;99.60;;;;;;5068814;28;20209;-88
2022/09/15 01:04:11;;;;;;;4.85;1.70;;;17.60;99.70;;;;;;5064634;28;20579;-88
2022/09/15 01:06:45;;;;;;;3.88;1.65;;;17.60;99.40;;;;;;5062772;28;20591;-88
2022/09/15 01:09:16;;;;;;;1.40;1.30;;;17.60;99.40;;;;;;5059335;28;20204;-88
2022/09/15 01:11:43;;;;;;;3.45;1.63;;;17.50;99.20;;;;;;5061146;28;20212;-89
2022/09/15 01:14:11;;;;;;;2.70;1.67;;;17.50;99.10;;;;;;5044578;28;20237;-88
2022/09/15 01:16:53;;;;;;;2.38;1.48;;;17.50;99.10;;;;;;5066428;28;20205;-88
2022/09/15 01:19:58;;;;;;;1.73;1.42;;;17.50;99.30;;;;;;5064981;28;20200;-88
2022/09/15 01:22:35;;;;;;;1.95;1.60;;;17.40;99.30;;;;;;5061447;28;20240;-88
2022/09/15 01:25:08;;;;;;;3.42;1.50;;;17.50;99.50;;;;;;5062283;28;20207;-88
2022/09/15 01:28:03;;;;;;;3.03;1.63;;;17.40;99.50;;;;;;5059020;28;20693;-87
2022/09/15 01:30:35;;;;;;;1.77;1.50;;;17.50;99.40;;;;;;5062758;28;20201;-88
2022/09/15 01:33:21;;;;;;;3.70;1.70;;;17.50;99.10;;;;;;5055282;28;20209;-87
2022/09/15 01:35:56;;;;;;;1.83;1.50;;;17.50;99.10;;;;;;5064697;28;20254;-88
2022/09/15 01:38:38;;;;;;;2.97;1.60;;;17.50;99.20;;;;;;5063548;28;20204;-87
2022/09/15 01:41:09;;;;;;;1.98;1.67;;;17.40;99.00;;;;;;5057103;28;20198;-88
2022/09/15 01:43:41;;;;;;;4.35;1.73;;;17.50;98.80;;;;;;5065526;28;20201;-87
2022/09/15 01:46:13;;;;;;;2.97;1.50;;;17.50;98.60;;;;;;5068033;28;20205;-87
2022/09/15 01:48:42;;;;;;;2.67;1.88;;;17.50;98.40;;;;;;5059645;28;20660;-87
2022/09/15 01:51:09;;;;;;;2.28;1.60;;;17.50;98.20;;;;;;5059475;28;20204;-86
2022/09/15 01:53:36;;;;;;;4.82;1.70;;;17.50;98.20;;;;;;5062216;28;20205;-87
2022/09/15 01:56:07;;;;;;;2.22;1.50;;;17.60;98.10;;;;;;5064995;28;20208;-87
2022/09/15 01:58:36;;;;;;;3.35;1.70;;;17.60;97.50;;;;;;5062087;28;20641;-88
2022/09/15 02:01:08;;;;;;;3.20;1.70;;;17.60;97.60;;;;;;5064565;28;20682;-87
2022/09/15 02:03:45;;;;;;;2.10;1.90;;;17.70;96.60;;;;;;5055340;28;20224;-88
2022/09/15 02:06:20;;;;;;;3.13;1.60;;;17.80;96.30;;;;;;5068981;28;20216;-87
2022/09/15 02:08:56;;;;;;;2.53;1.60;;;17.80;96.20;;;;;;5069948;28;20246;-88
2022/09/15 02:11:26;;;;;;;2.53;1.65;;;17.90;95.90;;;;;;5067033;28;20207;-88
2022/09/15 02:13:59;;;;;;;4.38;2.00;;;17.80;95.80;;;;;;5064990;28;20553;-88
2022/09/15 02:16:31;;;;;;;2.28;1.58;;;17.80;95.50;;;;;;5065950;28;20270;-87
2022/09/15 02:19:20;;;;;;;3.53;1.90;;;17.80;95.40;;;;;;5070553;28;20202;-87
2022/09/15 02:21:54;;;;;;;3.92;2.00;;;17.90;95.60;;;;;;5068994;28;20193;-86
2022/09/15 02:24:31;;;;;;;1.92;1.60;;;17.90;95.40;;;;;;5071372;28;20236;-87
2022/09/15 02:26:59;;;;;;;2.75;1.70;;;18.00;95.30;;;;;;5068260;28;20224;-88
2022/09/15 02:29:28;;;;;;;2.58;1.65;;;17.90;94.90;;;;;;5063152;28;20231;-87
2022/09/15 02:31:58;;;;;;;2.58;1.83;;;17.90;95.20;;;;;;5059580;28;20331;-87
2022/09/15 02:34:31;;;;;;;2.58;1.63;;;17.90;94.80;;;;;;5061719;28;20255;-87
2022/09/15 02:36:59;;;;;;;6.22;1.63;;;17.90;94.80;;;;;;5055388;28;20190;-87
2022/09/15 02:39:32;;;;;;;3.50;1.83;;;17.80;95.20;;;;;;5060596;28;20201;-87
2022/09/15 02:42:03;;;;;;;3.28;1.90;;;17.80;95.00;;;;;;5054302;28;20549;-87
2022/09/15 02:44:30;;;;;;;3.20;1.80;;;17.70;95.00;;;;;;5063921;28;20186;-87
2022/09/15 02:46:57;;;;;;;2.40;1.77;;;17.70;95.00;;;;;;5062617;28;20316;-88
2022/09/15 02:49:24;;;;;;;2.53;1.90;;;17.80;94.90;;;;;;5065310;28;20197;-87
2022/09/15 02:51:53;;;;;;;2.75;1.60;;;17.70;94.80;;;;;;5068865;28;20201;-88
2022/09/15 02:54:19;;;;;;;5.10;2.15;;;17.70;95.10;;;;;;5065352;28;20580;-88
2022/09/15 02:56:47;;;;;;;2.83;1.90;;;17.70;95.20;;;;;;5059082;28;20213;-88
2022/09/15 02:59:13;;;;;;;2.22;1.80;;;17.70;95.00;;;;;;5063410;28;20206;-88
2022/09/15 03:01:40;;;;;;;2.22;1.80;;;17.60;95.10;;;;;;5064031;28;20193;-87
2022/09/15 03:04:07;;;;;;;4.00;1.73;;;17.60;95.20;;;;;;5065501;28;20198;-88
2022/09/15 03:06:34;;;;;;;3.33;1.90;;;17.60;95.20;;;;;;5059666;28;20197;-88
2022/09/15 03:09:05;;;;;;;2.28;1.67;;;17.60;94.80;;;;;;5060195;28;20300;-87
2022/09/15 03:11:33;;;;;;;5.03;2.00;;;17.60;94.80;;;;;;5063580;28;20205;-88
2022/09/15 03:14:02;;;;;;;2.65;1.90;;;17.70;94.90;;;;;;5064551;28;20205;-88
2022/09/15 03:16:34;;;;;;;4.07;2.00;;;17.60;95.10;;;;;;5069436;28;20207;-87
2022/09/15 03:19:02;;;;;;;5.43;2.08;;;17.50;95.20;;;;;;5068466;28;20205;-87
2022/09/15 03:21:30;;;;;;;3.20;1.85;;;17.40;95.20;;;;;;5069913;28;20211;-87
2022/09/15 03:23:58;;;;;;;2.45;1.55;;;17.40;95.20;;;;;;5068822;28;20202;-87
2022/09/15 03:26:26;;;;;;;2.50;1.70;;;17.40;95.80;;;;;;5060984;28;20202;-87
2022/09/15 03:28:53;;;;;;;3.33;1.90;;;17.50;94.80;;;;;;5069631;28;20668;-87
2022/09/15 03:31:20;;;;;;;4.15;2.00;;;17.40;94.90;;;;;;5069386;28;20206;-88
2022/09/15 03:33:47;;;;;;;2.30;1.60;;;17.40;95.30;;;;;;5070233;28;20211;-87
2022/09/15 03:36:14;;;;;;;2.00;1.70;;;17.40;95.00;;;;;;5063487;28;20225;-88
2022/09/15 03:38:41;;;;;;;3.55;1.70;;;17.40;94.80;;;;;;5056397;28;20198;-88
2022/09/15 03:41:10;;;;;;;3.08;1.90;;;17.40;95.20;;;;;;5065100;28;20197;-87
2022/09/15 03:43:38;;;;;;;3.67;1.90;;;17.40;95.30;;;;;;5072202;28;20209;-88
2022/09/15 03:46:07;;;;;;;3.92;1.70;;;17.40;94.80;;;;;;5068770;28;20216;-87
2022/09/15 03:48:35;;;;;;;3.22;1.55;;;17.40;95.00;;;;;;5060679;28;20233;-88
2022/09/15 03:51:10;;;;;;;2.05;1.75;;;17.50;94.60;;;;;;5069818;28;20317;-88
2022/09/15 03:53:39;;;;;;;4.25;1.70;;;17.50;94.40;;;;;;5065092;28;21602;-87
2022/09/15 03:56:11;;;;;;;2.30;1.80;;;17.50;94.70;;;;;;5071729;28;20220;-87
2022/09/15 03:58:40;;;;;;;5.00;2.00;;;17.50;94.50;;;;;;5070887;28;20205;-88
2022/09/15 04:01:08;;;;;;;5.10;1.67;;;17.50;94.50;;;;;;5069207;28;20208;-88
2022/09/15 04:03:34;;;;;;;3.25;2.05;;;17.60;93.80;;;;;;5066057;28;20209;-87
2022/09/15 04:06:02;;;;;;;3.00;1.63;;;17.70;93.90;;;;;;5064281;28;20223;-89
2022/09/15 04:08:29;;;;;;;2.53;1.90;;;17.70;93.20;;;;;;5071335;28;20270;-88
2022/09/15 04:10:56;;;;;;;3.45;1.63;;;17.80;93.20;;;;;;5067262;28;20205;-87
2022/09/15 04:13:26;;;;;;;3.55;2.10;;;17.80;92.90;;;;;;5064693;28;20206;-88
2022/09/15 04:16:02;;;;;;;2.80;1.70;;;17.90;92.90;;;;;;5078470;28;20201;-87
2022/09/15 04:18:29;;;;;;;3.60;1.63;;;17.80;92.10;;;;;;5075357;28;20201;-87
2022/09/15 04:21:21;;;;;;;2.67;1.63;;;17.90;92.50;;;;;;5069250;28;20205;-88
2022/09/15 04:23:51;;;;;;;3.72;1.50;;;17.90;92.10;;;;;;5070280;28;20280;-88
2022/09/15 04:26:34;;;;;;;5.38;1.60;;;17.90;92.50;;;;;;5066988;28;20217;-87
2022/09/15 04:29:03;;;;;;;1.58;1.30;;;17.80;92.40;;;;;;5068101;28;20202;-88
2022/09/15 04:31:34;;;;;;;1.73;1.58;;;17.80;92.50;;;;;;5072336;28;20535;-88
2022/09/15 04:34:14;;;;;;;2.90;1.50;;;17.80;92.30;;;;;;5068108;28;20672;-87
2022/09/15 04:36:41;;;;;;;3.20;1.60;;;17.80;92.50;;;;;;5067164;28;20201;-87
2022/09/15 04:39:14;;;;;;;2.50;1.60;;;17.80;92.30;;;;;;5067461;28;20202;-87
2022/09/15 04:42:08;;;;;;;1.50;1.25;;;17.80;92.10;;;;;;5068160;28;20194;-87
2022/09/15 04:45:08;;;;;;;2.08;1.35;;;17.80;92.10;;;;;;5073050;28;20193;-87
2022/09/15 04:47:47;;;;;;;2.03;1.83;;;17.80;92.10;;;;;;5067714;28;20216;-87
2022/09/15 04:50:20;;;;;;;1.70;1.40;;;17.80;92.10;;;;;;5070667;28;20197;-87
2022/09/15 04:52:51;;;;;;;6.45;1.70;;;17.80;91.70;;;;;;5060402;28;20201;-87
2022/09/15 04:55:20;;;;;;;1.55;1.45;;;17.90;91.50;;;;;;5058374;28;20523;-87
2022/09/15 04:58:03;;;;;;;2.17;1.70;;;18.00;91.80;;;;;;5064976;28;20197;-87
2022/09/15 05:00:50;;;;;;;1.92;1.45;;;18.10;91.00;;;;;;5066061;28;20204;-88
2022/09/15 05:03:22;;;;;;;1.90;1.52;;;18.00;90.50;;;;;;5072959;28;20691;-88
2022/09/15 05:05:50;;;;;;;2.45;1.38;;;18.00;91.20;;;;;;5073115;28;20228;-87
2022/09/15 05:08:17;;;;;;;1.88;1.23;;;18.00;91.00;;;;;;5065509;28;20217;-91
2022/09/15 05:10:50;;;;;;;1.73;1.45;;;18.00;90.60;;;;;;5061797;28;20201;-86
2022/09/15 05:13:20;;;;;;;1.67;1.30;;;18.10;89.90;;;;;;5071436;28;20550;-88
2022/09/15 05:15:47;;;;;;;1.40;1.10;;;18.10;88.20;;;;;;5059640;28;20194;-89
2022/09/15 05:18:15;;;;;;;1.65;1.15;;;18.20;86.90;;;;;;5061107;28;20201;-88
2022/09/15 05:20:59;;;;;;;1.40;1.10;;;18.20;87.10;;;;;;5065506;28;20220;-88
2022/09/15 05:23:45;;;;;;;1.50;1.40;;;18.20;88.90;;;;;;5067884;28;20205;-86
2022/09/15 05:26:18;;;;;;;1.77;1.40;;;18.20;87.80;;;;;;5068987;28;20553;-88
2022/09/15 05:28:45;;;;;;;2.40;1.30;;;18.20;88.60;;;;;;5066921;28;20213;-85
2022/09/15 05:31:29;;;;;;;1.75;1.45;;;18.20;90.00;;;;;;5068173;28;20201;-88
2022/09/15 05:33:56;;;;;;;2.22;1.92;;;18.10;89.60;;;;;;5061439;28;20193;-89
2022/09/15 05:36:25;;;;;;;4.25;1.60;;;18.10;90.30;;;;;;5063054;28;20190;-89
2022/09/15 05:38:52;;;;;;;2.95;1.50;;;18.10;90.30;;;;;;5061566;28;20205;-88
2022/09/15 05:41:20;;;;;;;1.88;1.55;;;18.10;90.20;;;;;;5057671;28;20209;-88
2022/09/15 05:43:51;;;;;;;2.38;1.48;;;18.20;90.10;;;;;;5057685;28;20201;-88
2022/09/15 05:46:19;;;;;;;4.35;1.50;;;18.20;88.30;;;;;;5058594;28;20910;-87
2022/09/15 05:48:46;;;;;;;1.20;1.10;;;18.20;88.60;;;;;;5066780;28;20222;-87
2022/09/15 05:51:14;;;;;;;2.63;1.02;;;18.20;89.00;;;;;;5063087;28;20202;-86
2022/09/15 05:53:42;;;;;;;1.92;1.20;;;18.30;87.80;;;;;;5063508;28;20272;-87
2022/09/15 05:56:11;;;;;;;1.38;1.05;;;18.20;89.30;;;;;;5066227;28;20193;-87
2022/09/15 05:58:40;;;;;;;1.27;1.02;;;18.20;89.20;;;;;;5070284;28;20209;-88
2022/09/15 06:01:09;;;;;;;1.38;1.20;;;18.20;90.00;;;;;;5068680;28;20226;-86
2022/09/15 06:03:39;;;;;;;1.30;1.20;;;18.20;89.30;;;;;;5071633;28;20205;-87
2022/09/15 06:06:07;;;;;;;1.20;1.10;;;18.30;87.50;;;;;;5068853;28;20699;-87
2022/09/15 06:08:35;;;;;;;1.58;1.20;;;18.30;88.50;;;;;;5066816;28;20225;-86
2022/09/15 06:11:08;;;;;;;2.33;1.30;;;18.40;87.70;;;;;;5064449;28;20206;-86
2022/09/15 06:13:35;;;;;;;2.30;1.15;;;18.30;88.80;;;;;;5066848;28;20570;-88
2022/09/15 06:16:04;;;;;;;2.53;1.30;;;18.40;89.50;;;;;;5070542;28;20670;-87
2022/09/15 06:18:32;;;;;;;2.70;1.35;;;18.40;88.90;;;;;;5069814;28;20652;-87
2022/09/15 06:21:06;;;;;;;3.22;1.63;;;18.50;89.30;;;;;;5063449;28;20213;-87
2022/09/15 06:23:33;;;;;;;2.03;1.83;;;18.50;88.80;;;;;;5069511;28;20200;-87
2022/09/15 06:26:12;;;;;;;1.65;1.30;;;18.60;87.80;;;;;;5068615;28;20196;-87
2022/09/15 06:28:41;;;;;;;2.58;2.13;;;18.80;85.50;;;;;;5069085;28;20228;-86
2022/09/15 06:31:11;;;;;;;3.38;2.67;;;18.70;86.10;;;;;;5074496;28;20204;-88
2022/09/15 06:33:41;;;;;;;5.05;1.80;;;18.70;87.60;;;;;;5073562;28;20664;-87
2022/09/15 06:36:09;;;;;;;4.28;3.20;;;18.70;88.80;;;;;;5064493;28;20223;-87
2022/09/15 06:38:36;;;;;;;3.00;2.67;;;18.60;89.60;;;;;;5065479;28;20212;-87
2022/09/15 06:41:03;;;;;;;2.33;1.60;;;18.50;88.10;;;;;;5072801;28;20210;-88
2022/09/15 06:43:35;;;;;;;1.35;1.23;;;18.50;88.70;;;;;;5073373;28;20561;-88
2022/09/15 06:46:05;;;;;;;1.60;1.50;;;18.50;88.60;;;;;;5069046;28;20286;-87
2022/09/15 06:48:32;;;;;;;1.88;1.10;;;18.50;88.60;;;;;;5075626;28;20220;-86
2022/09/15 06:50:59;;;;;;;2.80;1.17;;;18.50;89.90;;;;;;5068870;28;20566;-87
2022/09/15 06:53:28;;;;;;;1.70;1.30;;;18.60;86.50;;;;;;5068235;28;20213;-88
2022/09/15 06:55:55;;;;;;;1.85;1.20;;;18.60;87.40;;;;;;5066011;28;20709;-88
2022/09/15 06:58:22;;;;;;;1.63;1.13;;;18.50;90.10;;;;;;5069396;28;20215;-88
2022/09/15 07:00:51;;;;;;;2.58;1.20;;;18.50;90.00;;;;;;5070912;28;20197;-87
2022/09/15 07:03:17;;;;;;;4.82;1.45;;;18.30;91.30;;;;;;5069065;28;20583;-88
2022/09/15 07:05:45;;;;;;;2.13;1.23;;;18.10;92.20;;;;;;5074140;28;20217;-87
2022/09/15 07:08:18;;;;;;;2.03;1.55;;;17.90;94.00;;;;;;5070095;28;20218;-87
2022/09/15 07:10:46;;;;;;;2.78;1.27;;;17.70;95.30;;;;;;5063402;28;20248;-86
2022/09/15 07:13:13;;;;;;;2.67;1.70;;;17.60;95.80;;;;;;5072853;28;20699;-87
2022/09/15 07:15:40;;;;;;;1.85;1.30;;;17.60;96.40;;;;;;5071561;28;20666;-87
2022/09/15 07:18:08;;;;;;;2.15;1.27;;;17.50;97.10;;;;;;5072724;28;20192;-87
2022/09/15 07:20:39;;;;;;;3.17;1.30;;;17.50;97.50;;;;;;5066820;28;20229;-87
2022/09/15 07:23:06;;;;;;;3.60;1.50;;;17.40;97.50;;;;;;5068411;28;20233;-86
2022/09/15 07:25:33;;;;;;;2.00;1.30;;;17.30;97.40;;;;;;5070301;28;20284;-88
2022/09/15 07:28:00;;;;;;;1.95;1.50;;;17.40;97.50;;;;;;5062818;28;20225;-87
2022/09/15 07:30:30;;;;;;;1.75;1.38;;;17.50;97.50;;;;;;5060792;28;20284;-87
2022/09/15 07:32:59;;;;;;;2.10;1.50;;;17.60;97.50;;;;;;5067505;28;20193;-87
2022/09/15 07:35:27;;;;;;;3.22;1.55;;;17.70;97.50;;;;;;5064797;28;20978;-87
2022/09/15 07:37:54;;;;;;;1.73;1.38;;;17.90;97.60;;;;;;5059411;28;20204;-88
2022/09/15 07:40:21;;;;;;;2.22;1.67;;;18.10;96.90;;;;;;5061420;28;20569;-88
2022/09/15 07:42:51;;;;;;;2.53;1.40;;;18.20;96.00;;;;;;5066521;28;20543;-87
2022/09/15 07:45:18;;;;;;;2.22;1.70;;;18.40;95.60;;;;;;5065643;28;20245;-87
2022/09/15 07:47:45;;;;;;;1.23;1.13;;;18.70;94.70;;;;;;5064581;28;20854;-87
2022/09/15 07:50:13;;;;;;;1.85;1.60;;;18.80;94.30;;;;;;5061811;28;20225;-86
2022/09/15 07:52:41;;;;;;;3.72;1.60;;;19.10;93.40;;;;;;5074510;28;20204;-87
2022/09/15 07:55:10;;;;;;;1.70;1.40;;;19.20;92.70;;;;;;5073484;28;20251;-87
2022/09/15 07:57:37;;;;;;;3.60;1.20;;;19.40;92.50;;;;;;5067943;28;20209;-87
2022/09/15 08:00:05;;;;;;;1.95;1.13;;;19.60;91.00;;;;;;5073011;28;20237;-86
2022/09/15 08:02:31;;;;;;;1.33;1.23;;;19.70;90.20;;;;;;5076830;28;20256;-87
2022/09/15 08:04:58;;;;;;;2.10;1.33;;;19.90;86.60;;;;;;5076861;28;20240;-86
2022/09/15 08:07:25;;;;;;;3.10;1.40;;;19.90;86.80;;;;;;5073706;28;20197;-87
2022/09/15 08:09:53;;;;;;;3.13;1.83;;;20.00;85.70;;;;;;5068741;28;20225;-86
2022/09/15 08:12:20;;;;;;;2.00;1.25;;;20.10;84.30;;;;;;5073731;28;20201;-86
2022/09/15 08:14:47;;;;;;;2.28;1.48;;;20.20;82.80;;;;;;5072743;28;20198;-86
2022/09/15 08:17:14;;;;;;;2.38;1.50;;;20.10;84.10;;;;;;5070278;28;20193;-87
2022/09/15 08:19:40;;;;;;;3.15;1.48;;;20.10;81.40;;;;;;5069678;28;20233;-86
2022/09/15 08:22:07;;;;;;;2.47;1.60;;;19.90;83.30;;;;;;5059878;28;20204;-86
2022/09/15 08:24:36;;;;;;;2.33;1.60;;;19.80;85.40;;;;;;5070091;28;20571;-87
2022/09/15 08:27:04;;;;;;;1.73;1.63;;;19.80;85.40;;;;;;5069865;28;20284;-87
2022/09/15 08:29:31;;;;;;;1.65;1.33;;;19.80;86.50;;;;;;5073229;28;20695;-86
2022/09/15 08:31:58;;;;;;;1.65;1.40;;;19.80;85.00;;;;;;5071332;28;20201;-86
2022/09/15 08:34:27;;;;;;;5.20;1.70;;;19.90;84.60;;;;;;5070315;28;20198;-87
2022/09/15 08:36:53;;;;;;;4.22;1.30;;;20.20;81.00;;;;;;5072007;28;20205;-86
2022/09/15 08:39:21;;;;;;;1.52;1.40;;;20.20;82.90;;;;;;5075551;28;20209;-87
2022/09/15 08:41:51;;;;;;;3.45;1.40;;;20.40;82.90;;;;;;5067627;28;20289;-87
2022/09/15 08:44:33;;;;;;;1.95;1.40;;;20.50;80.10;;;;;;5065087;28;20207;-87
2022/09/15 08:47:04;;;;;;;2.65;1.38;;;20.70;80.40;;;;;;5073275;28;20204;-85
2022/09/15 08:49:37;;;;;;;1.58;1.40;;;20.90;78.50;;;;;;5069302;28;20205;-87
2022/09/15 08:52:07;;;;;;;1.63;1.40;;;21.00;75.50;;;;;;5064016;28;20669;-87
2022/09/15 08:54:34;;;;;;;2.10;1.30;;;21.00;73.40;;;;;;5060999;28;20198;-86
2022/09/15 08:57:03;;;;;;;3.63;1.65;;;21.10;73.60;;;;;;5067755;28;20706;-87
2022/09/15 08:59:34;;;;;;;3.65;1.70;;;21.20;72.00;;;;;;5068396;28;20205;-87
2022/09/15 09:02:32;;;;;;;1.98;1.65;;;21.50;69.50;;;;;;5066222;28;20208;-88
2022/09/15 09:05:10;;;;;;;1.25;1.15;;;22.00;64.30;;;;;;5066220;28;20225;-83
2022/09/15 09:07:54;;;;;;;2.67;1.60;;;22.50;56.40;;;;;;5072947;28;20205;-82
2022/09/15 09:10:26;;;;;;;2.53;1.73;;;23.00;54.30;;;;;;5066007;28;20228;-82
2022/09/15 09:13:09;;;;;;;2.90;1.58;;;23.30;46.50;;;;;;5074332;28;20193;-83
2022/09/15 09:15:49;;;;;;;3.05;1.50;;;23.70;45.50;;;;;;5062296;28;20648;-84
2022/09/15 09:18:35;;;;;;;1.25;1.17;;;23.90;43.80;;;;;;5067367;28;20221;-84
2022/09/15 09:21:09;;;;;;;3.58;1.48;;;24.70;40.60;;;;;;5077822;28;20201;-84
2022/09/15 09:23:45;;;;;;;1.92;1.75;;;24.90;34.40;;;;;;5072531;28;20208;-84
2022/09/15 09:26:14;;;;;;;2.92;1.65;;;24.40;35.80;;;;;;5065727;28;20201;-84
2022/09/15 09:28:47;;;;;;;2.55;1.67;;;24.00;35.40;;;;;;5068349;28;20591;-83
2022/09/15 09:31:20;;;;;;;1.67;1.40;;;23.90;38.80;;;;;;5074344;28;20193;-84
2022/09/15 09:33:53;;;;;;;2.08;1.50;;;24.00;35.40;;;;;;5064633;28;20201;-84
2022/09/15 09:36:20;;;;;;;4.75;1.73;;;24.40;34.80;;;;;;5074211;28;20203;-84
2022/09/15 09:38:48;;;;;;;1.85;1.40;;;24.40;34.80;;;;;;5070381;28;20213;-84
2022/09/15 09:41:18;;;;;;;2.60;1.20;;;24.60;32.90;;;;;;5063608;28;20204;-83
2022/09/15 09:43:47;;;;;;;1.60;1.50;;;24.80;33.90;;;;;;5076516;28;20200;-84
2022/09/15 09:46:17;;;;;;;2.78;1.52;;;25.10;31.00;;;;;;5067390;28;20199;-85
2022/09/15 09:48:48;;;;;;;1.70;1.50;;;25.10;30.40;;;;;;5067624;28;20224;-84
2022/09/15 09:51:33;;;;;;;2.92;1.67;;;25.20;29.00;;;;;;5071779;28;20568;-86
2022/09/15 09:54:14;;;;;;;1.90;1.40;;;25.10;29.10;;;;;;5073039;28;20289;-85
2022/09/15 09:56:42;;;;;;;2.72;1.40;;;24.90;32.10;;;;;;5065200;28;20201;-86
2022/09/15 09:59:38;;;;;;;2.50;1.60;;;24.60;31.70;;;;;;5068808;28;20204;-85
2022/09/15 10:02:14;;;;;;;1.52;1.40;;;24.30;32.20;;;;;;5063552;28;20196;-85
2022/09/15 10:04:42;;;;;;;4.25;1.48;;;23.80;34.10;;;;;;5075599;28;20307;-86
2022/09/15 10:07:10;;;;;;;2.58;1.60;;;23.50;35.00;;;;;;5063885;28;20232;-85
2022/09/15 10:09:37;;;;;;;2.58;1.88;;;23.80;35.20;;;;;;5074707;28;20577;-85
2022/09/15 10:12:06;;;;;;;4.75;1.40;;;24.20;35.60;;;;;;5072081;28;20189;-86
2022/09/15 10:14:35;;;;;;;2.00;1.45;;;25.00;32.40;;;;;;5068746;28;20288;-86
2022/09/15 10:17:07;;;;;;;2.05;1.55;;;25.70;29.30;;;;;;5071798;28;20193;-86
2022/09/15 10:19:44;;;;;;;2.05;1.80;;;26.40;26.50;;;;;;5066558;28;20197;-86
2022/09/15 10:22:22;;;;;;;4.63;1.55;;;26.70;24.60;;;;;;5071876;28;20189;-86
2022/09/15 10:24:50;;;;;;;3.38;1.65;;;26.80;25.60;;;;;;5056268;28;20200;-86
2022/09/15 10:27:20;;;;;;;1.77;1.67;;;27.10;25.20;;;;;;5058895;28;20580;-86
2022/09/15 10:29:47;;;;;;;2.42;1.58;;;27.20;23.00;;;;;;5072835;28;20699;-86
2022/09/15 10:32:23;;;;;;;2.78;1.52;;;27.40;25.90;;;;;;5071949;28;20537;-87
2022/09/15 10:34:59;;;;;;;1.50;1.40;;;28.00;20.70;;;;;;5061999;28;20210;-86
2022/09/15 10:37:29;;;;;;;2.72;1.67;;;27.60;20.90;;;;;;5071801;28;20599;-86
2022/09/15 10:39:59;;;;;;;2.72;1.70;;;27.10;22.20;;;;;;5064376;28;20561;-86
2022/09/15 10:42:42;;;;;;;2.25;1.63;;;26.90;23.50;;;;;;5070110;28;20207;-86
2022/09/15 10:45:19;;;;;;;2.55;1.63;;;26.50;23.80;;;;;;5067719;28;20199;-87
2022/09/15 10:48:05;;;;;;;1.73;1.40;;;25.80;24.10;;;;;;5063302;28;20204;-85
2022/09/15 10:50:44;;;;;;;1.77;1.48;;;25.30;24.70;;;;;;5065616;28;20219;-85
2022/09/15 10:53:19;;;;;;;3.03;1.42;;;24.90;26.80;;;;;;5061190;28;20189;-85
2022/09/15 10:55:56;;;;;;;1.92;1.45;;;24.60;29.30;;;;;;5070975;28;20211;-85
2022/09/15 10:58:49;;;;;;;1.55;1.20;;;24.60;28.00;;;;;;5061073;28;20201;-86
2022/09/15 11:01:36;;;;;;;1.85;1.75;;;24.50;29.40;;;;;;5059486;28;20197;-82
2022/09/15 11:04:18;;;;;;;2.00;1.60;;;24.40;27.80;;;;;;5064545;28;20197;-84
2022/09/15 11:06:54;;;;;;;1.52;1.30;;;24.10;28.60;;;;;;5071568;28;20198;-82
2022/09/15 11:09:24;;;;;;;2.45;1.50;;;23.80;28.60;;;;;;5076447;28;20227;-85
2022/09/15 11:12:07;;;;;;;1.83;1.58;;;23.50;32.30;;;;;;5076488;28;20235;-85
2022/09/15 11:14:47;;;;;;;1.85;1.27;;;23.40;33.70;;;;;;5065299;28;20213;-86
2022/09/15 11:17:34;;;;;;;1.73;1.58;;;23.60;32.10;;;;;;5073847;28;20197;-85
2022/09/15 11:20:27;;;;;;;6.13;1.50;;;23.70;35.10;;;;;;5073456;28;20193;-84
2022/09/15 11:23:01;;;;;;;1.73;1.23;;;24.10;34.10;;;;;;5071202;28;20208;-85
2022/09/15 11:25:31;;;;;;;2.05;1.30;;;24.10;34.40;;;;;;5068245;28;20205;-85
2022/09/15 11:28:12;;;;;;;1.95;1.48;;;24.00;31.20;;;;;;5071523;28;20204;-85
2022/09/15 11:30:43;;;;;;;1.83;1.42;;;24.00;34.00;;;;;;5061840;28;20225;-85
2022/09/15 11:33:16;;;;;;;3.35;1.25;;;24.20;33.00;;;;;;5069290;28;20206;-84
2022/09/15 11:35:55;;;;;;;3.05;1.30;;;24.30;29.70;;;;;;5067978;28;20563;-84
2022/09/15 11:38:57;;;;;;;3.10;1.38;;;24.20;31.40;;;;;;5069230;28;20201;-84
2022/09/15 11:41:37;;;;;;;1.63;1.10;;;23.90;31.20;;;;;;5074908;28;20208;-84
2022/09/15 11:44:21;;;;;;;2.20;1.23;;;23.60;32.50;;;;;;5069239;28;20205;-84
2022/09/15 11:47:05;;;;;;;1.95;1.38;;;23.50;31.70;;;;;;5074424;28;20264;-84
2022/09/15 11:49:40;;;;;;;1.67;1.30;;;23.20;33.50;;;;;;5070605;28;20217;-84
2022/09/15 11:52:19;;;;;;;2.05;1.23;;;23.00;34.60;;;;;;5080539;28;20193;-84
2022/09/15 11:54:59;;;;;;;1.85;1.65;;;22.90;35.60;;;;;;5076293;28;20196;-84
2022/09/15 11:57:34;;;;;;;1.52;1.30;;;22.60;36.50;;;;;;5077174;28;20193;-84
2022/09/15 12:00:06;;;;;;;5.55;1.50;;;22.50;39.20;;;;;;5076159;28;20280;-84
2022/09/15 12:02:42;;;;;;;2.00;1.27;;;22.70;39.00;;;;;;5067827;28;20217;-84
2022/09/15 12:05:14;;;;;;;3.30;1.30;;;22.70;37.00;;;;;;5065522;28;20222;-84
2022/09/15 12:07:51;;;;;;;3.80;1.60;;;22.40;37.20;;;;;;5068992;28;20196;-85
2022/09/15 12:10:39;;;;;;;3.53;1.38;;;22.20;39.40;;;;;;5068884;28;20321;-84
2022/09/15 12:13:15;;;;;;;2.20;1.50;;;22.00;42.80;;;;;;5079622;28;20197;-85
2022/09/15 12:15:43;;;;;;;2.10;1.50;;;22.00;44.50;;;;;;5075183;28;20207;-84
2022/09/15 12:18:19;;;;;;;3.63;1.30;;;22.10;45.70;;;;;;5078025;28;20211;-85
2022/09/15 12:20:53;;;;;;;2.33;1.30;;;22.20;45.80;;;;;;5074919;28;20224;-85
2022/09/15 12:23:27;;;;;;;2.05;1.25;;;22.40;44.40;;;;;;5065371;28;20248;-84
2022/09/15 12:26:09;;;;;;;3.35;1.27;;;22.50;41.70;;;;;;5073274;28;20202;-85
2022/09/15 12:28:53;;;;;;;2.17;1.30;;;22.60;40.20;;;;;;5071308;28;20212;-83
2022/09/15 12:31:40;;;;;;;2.35;1.20;;;22.70;39.50;;;;;;5071862;28;20240;-84
2022/09/15 12:34:35;;;;;;;1.35;1.02;;;22.80;38.70;;;;;;5074317;28;20536;-86
2022/09/15 12:37:08;;;;;;;5.80;1.20;;;22.60;39.10;;;;;;5078044;28;20193;-86
2022/09/15 12:39:40;;;;;;;3.60;1.27;;;22.40;42.90;;;;;;5069560;28;20197;-85
2022/09/15 12:42:17;;;;;;;1.63;1.05;;;22.20;41.70;;;;;;5070833;28;20194;-86
2022/09/15 12:44:50;;;;;;;1.13;1.00;;;21.80;45.40;;;;;;5072729;28;20205;-85
2022/09/15 12:47:33;;;;;;;1.20;1.10;;;21.60;45.10;;;;;;5073895;28;20648;-85
2022/09/15 12:50:04;;;;;;;1.20;1.10;;;21.40;49.00;;;;;;5070139;28;20688;-84
2022/09/15 12:52:41;;;;;;;2.13;1.30;;;21.50;51.80;;;;;;5064918;28;20202;-87
2022/09/15 12:55:18;;;;;;;2.35;1.08;;;21.70;52.30;;;;;;5058262;28;20585;-87
2022/09/15 12:57:51;;;;;;;4.05;1.30;;;21.90;51.20;;;;;;5060823;28;20359;-87
2022/09/15 13:00:33;;;;;;;1.10;1.00;;;22.40;48.40;;;;;;5057285;28;20218;-87
2022/09/15 13:03:28;;;;;;;1.35;1.25;;;22.80;47.30;;;;;;5068112;28;20213;-84
2022/09/15 13:06:18;;;;;;;1.40;1.30;;;22.90;45.90;;;;;;5076523;28;20221;-85
2022/09/15 13:08:50;;;;;;;0.95;0.95;;;22.60;44.20;;;;;;5072195;28;20995;-85
2022/09/15 13:11:33;;;;;;;2.38;1.30;;;22.50;44.90;;;;;;5077745;28;20225;-88
2022/09/15 13:14:13;;;;;;;1.02;0.93;;;22.40;47.40;;;;;;5058645;28;20197;-88
2022/09/15 13:16:49;;;;;;;1.63;1.30;;;22.20;47.70;;;;;;5066678;28;20666;-88